NOZ550 ENGM-ENZV
Flight info
| Callsign | NOZ550 |
|---|---|
| Flight time | N/A |
| Altitude | 34000 |
| Route | ATLAP DCT IPMOD DCT ROPNO |
| Aircraft | B738/M-SDE2E3GHIJ1LRWXY/LB1 |
Departure
| Time | N/A |
|---|---|
| Airport | Oslo-Gardermoen International Airport (ENGM) |
Arrival
| Time | 2026-05-03 20:41 |
|---|---|
| Airport | Stavanger Airport, Sola (ENZV) |
| Time | Latitude | Longitude | Altitude | Speed | Heading |
|---|---|---|---|---|---|
| 2026-05-03 20:15 | 59.60625 | 8.42617 | 30079 ft | 314 kts | 238° |
| 2026-05-03 20:15 | 59.59466 | 8.38984 | 29707 ft | 311 kts | 238° |
| 2026-05-03 20:15 | 59.58319 | 8.35400 | 29364 ft | 307 kts | 238° |
| 2026-05-03 20:15 | 59.57185 | 8.31860 | 29012 ft | 303 kts | 238° |
| 2026-05-03 20:16 | 59.56066 | 8.28370 | 28650 ft | 299 kts | 238° |
| 2026-05-03 20:16 | 59.54957 | 8.24919 | 28283 ft | 296 kts | 238° |
| 2026-05-03 20:16 | 59.53859 | 8.21506 | 27961 ft | 294 kts | 238° |
| 2026-05-03 20:16 | 59.52766 | 8.18112 | 27592 ft | 293 kts | 238° |
| 2026-05-03 20:17 | 59.51675 | 8.14732 | 27250 ft | 293 kts | 238° |
| 2026-05-03 20:17 | 59.50582 | 8.11347 | 26932 ft | 303 kts | 238° |
| 2026-05-03 20:17 | 59.49427 | 8.07779 | 26573 ft | 313 kts | 238° |
| 2026-05-03 20:17 | 59.48259 | 8.04172 | 26206 ft | 312 kts | 238° |
| 2026-05-03 20:18 | 59.47093 | 8.00581 | 25820 ft | 310 kts | 238° |
| 2026-05-03 20:18 | 59.45935 | 7.97022 | 25426 ft | 308 kts | 238° |
| 2026-05-03 20:18 | 59.44782 | 7.93482 | 25071 ft | 306 kts | 238° |
| 2026-05-03 20:18 | 59.43638 | 7.89973 | 24698 ft | 304 kts | 238° |
| 2026-05-03 20:19 | 59.42499 | 7.86486 | 24351 ft | 302 kts | 238° |
| 2026-05-03 20:19 | 59.41368 | 7.83027 | 24010 ft | 300 kts | 238° |
| 2026-05-03 20:19 | 59.40242 | 7.79591 | 23662 ft | 299 kts | 238° |
| 2026-05-03 20:19 | 59.39119 | 7.76165 | 23311 ft | 298 kts | 238° |
| 2026-05-03 20:20 | 59.37998 | 7.72753 | 22895 ft | 297 kts | 238° |
| 2026-05-03 20:20 | 59.36881 | 7.69358 | 22504 ft | 295 kts | 238° |
| 2026-05-03 20:20 | 59.35776 | 7.66003 | 22179 ft | 292 kts | 238° |
| 2026-05-03 20:20 | 59.34679 | 7.62677 | 21838 ft | 289 kts | 238° |
| 2026-05-03 20:21 | 59.33588 | 7.59378 | 21500 ft | 287 kts | 238° |
| 2026-05-03 20:21 | 59.32505 | 7.56104 | 21175 ft | 285 kts | 238° |
| 2026-05-03 20:21 | 59.31428 | 7.52852 | 20851 ft | 284 kts | 238° |
| 2026-05-03 20:21 | 59.30356 | 7.49620 | 20516 ft | 282 kts | 238° |
| 2026-05-03 20:22 | 59.29289 | 7.46408 | 20212 ft | 281 kts | 238° |
| 2026-05-03 20:22 | 59.28226 | 7.43212 | 19891 ft | 279 kts | 238° |
| 2026-05-03 20:22 | 59.27168 | 7.40036 | 19580 ft | 279 kts | 238° |
| 2026-05-03 20:22 | 59.26110 | 7.36866 | 19247 ft | 277 kts | 238° |
| 2026-05-03 20:23 | 59.25059 | 7.33717 | 18950 ft | 276 kts | 238° |
| 2026-05-03 20:23 | 59.24011 | 7.30586 | 18632 ft | 275 kts | 238° |
| 2026-05-03 20:23 | 59.22966 | 7.27464 | 18325 ft | 274 kts | 238° |
| 2026-05-03 20:23 | 59.21920 | 7.24345 | 17976 ft | 274 kts | 238° |
| 2026-05-03 20:24 | 59.20877 | 7.21241 | 17626 ft | 273 kts | 238° |
| 2026-05-03 20:24 | 59.19842 | 7.18161 | 17319 ft | 271 kts | 238° |
| 2026-05-03 20:24 | 59.18809 | 7.15094 | 16984 ft | 269 kts | 238° |
| 2026-05-03 20:24 | 59.17784 | 7.12053 | 16686 ft | 267 kts | 238° |
| 2026-05-03 20:25 | 59.16765 | 7.09035 | 16378 ft | 266 kts | 238° |
| 2026-05-03 20:25 | 59.15752 | 7.06038 | 16070 ft | 264 kts | 238° |
| 2026-05-03 20:25 | 59.14740 | 7.03045 | 15793 ft | 266 kts | 238° |
| 2026-05-03 20:25 | 59.13714 | 7.00014 | 15470 ft | 270 kts | 238° |
| 2026-05-03 20:26 | 59.12665 | 6.96920 | 15141 ft | 278 kts | 238° |
| 2026-05-03 20:26 | 59.11590 | 6.93755 | 14825 ft | 282 kts | 238° |
| 2026-05-03 20:26 | 59.10504 | 6.90562 | 14500 ft | 282 kts | 238° |
| 2026-05-03 20:26 | 59.09437 | 6.87431 | 14169 ft | 281 kts | 238° |
| 2026-05-03 20:27 | 59.08357 | 6.84267 | 13854 ft | 280 kts | 238° |
| 2026-05-03 20:27 | 59.07281 | 6.81117 | 13505 ft | 280 kts | 238° |
| 2026-05-03 20:27 | 59.06203 | 6.77966 | 13149 ft | 279 kts | 238° |
| 2026-05-03 20:27 | 59.05127 | 6.74824 | 12810 ft | 279 kts | 238° |
| 2026-05-03 20:28 | 59.04057 | 6.71704 | 12486 ft | 277 kts | 238° |
| 2026-05-03 20:28 | 59.02988 | 6.68593 | 12143 ft | 276 kts | 238° |
| 2026-05-03 20:28 | 59.01924 | 6.65498 | 11812 ft | 275 kts | 238° |
| 2026-05-03 20:28 | 59.00867 | 6.62429 | 11496 ft | 273 kts | 238° |
| 2026-05-03 20:29 | 58.99814 | 6.59374 | 11182 ft | 271 kts | 238° |
| 2026-05-03 20:29 | 58.98767 | 6.56342 | 10859 ft | 270 kts | 238° |
| 2026-05-03 20:29 | 58.97721 | 6.53314 | 10541 ft | 270 kts | 238° |
| 2026-05-03 20:29 | 58.96679 | 6.50302 | 10225 ft | 269 kts | 238° |
| 2026-05-03 20:30 | 58.95642 | 6.47311 | 10039 ft | 263 kts | 238° |
| 2026-05-03 20:30 | 58.94631 | 6.44400 | 9865 ft | 258 kts | 238° |
| 2026-05-03 20:30 | 58.93631 | 6.41520 | 9545 ft | 258 kts | 238° |
| 2026-05-03 20:30 | 58.92632 | 6.38647 | 9257 ft | 257 kts | 238° |
| 2026-05-03 20:31 | 58.91636 | 6.35786 | 8956 ft | 256 kts | 238° |
| 2026-05-03 20:31 | 58.90642 | 6.32933 | 8672 ft | 256 kts | 238° |
| 2026-05-03 20:31 | 58.89648 | 6.30085 | 8363 ft | 255 kts | 238° |
| 2026-05-03 20:31 | 58.88657 | 6.27247 | 8074 ft | 254 kts | 238° |
| 2026-05-03 20:32 | 58.87669 | 6.24423 | 7763 ft | 254 kts | 238° |
| 2026-05-03 20:32 | 58.86683 | 6.21609 | 7480 ft | 252 kts | 238° |
| 2026-05-03 20:32 | 58.85702 | 6.18812 | 7192 ft | 251 kts | 239° |
| 2026-05-03 20:32 | 58.84722 | 6.16023 | 6915 ft | 251 kts | 239° |
| 2026-05-03 20:33 | 58.83745 | 6.13241 | 6640 ft | 249 kts | 239° |
| 2026-05-03 20:33 | 58.82773 | 6.10480 | 6407 ft | 248 kts | 238° |
| 2026-05-03 20:33 | 58.81801 | 6.07720 | 6081 ft | 250 kts | 238° |
| 2026-05-03 20:33 | 58.80825 | 6.04953 | 5810 ft | 249 kts | 239° |
| 2026-05-03 20:34 | 58.79842 | 6.02167 | 5458 ft | 252 kts | 239° |
| 2026-05-03 20:34 | 58.78853 | 5.99370 | 5188 ft | 254 kts | 240° |
| 2026-05-03 20:34 | 58.77870 | 5.96592 | 4870 ft | 254 kts | 239° |
| 2026-05-03 20:34 | 58.76864 | 5.93752 | 4597 ft | 253 kts | 240° |
| 2026-05-03 20:35 | 58.75886 | 5.90993 | 4315 ft | 253 kts | 240° |
| 2026-05-03 20:35 | 58.74895 | 5.88199 | 4035 ft | 252 kts | 240° |
| 2026-05-03 20:35 | 58.73905 | 5.85417 | 3756 ft | 252 kts | 239° |
| 2026-05-03 20:35 | 58.72926 | 5.82675 | 3634 ft | 245 kts | 241° |
| 2026-05-03 20:36 | 58.71974 | 5.80010 | 3519 ft | 238 kts | 240° |
| 2026-05-03 20:36 | 58.71248 | 5.77259 | 3386 ft | 224 kts | 264° |
| 2026-05-03 20:36 | 58.71308 | 5.74440 | 3356 ft | 202 kts | 286° |
| 2026-05-03 20:36 | 58.71705 | 5.71960 | 3255 ft | 187 kts | 292° |
| 2026-05-03 20:37 | 58.72128 | 5.69676 | 3104 ft | 177 kts | 293° |
| 2026-05-03 20:37 | 58.72530 | 5.67503 | 2941 ft | 168 kts | 295° |
| 2026-05-03 20:37 | 58.73094 | 5.65632 | 2748 ft | 155 kts | 320° |
| 2026-05-03 20:37 | 58.74040 | 5.64907 | 2709 ft | 150 kts | 352° |
| 2026-05-03 20:38 | 58.75113 | 5.64587 | 2509 ft | 154 kts | 351° |
| 2026-05-03 20:38 | 58.76152 | 5.64322 | 2313 ft | 148 kts | 352° |
| 2026-05-03 20:38 | 58.77167 | 5.64148 | 2089 ft | 141 kts | 355° |
| 2026-05-03 20:38 | 58.78126 | 5.64082 | 1887 ft | 135 kts | 357° |
| 2026-05-03 20:39 | 58.79032 | 5.64047 | 1723 ft | 130 kts | 357° |
| 2026-05-03 20:39 | 58.79916 | 5.64018 | 1529 ft | 125 kts | 358° |
| 2026-05-03 20:39 | 58.80777 | 5.63992 | 1359 ft | 123 kts | 357° |
| 2026-05-03 20:39 | 58.81624 | 5.63967 | 1196 ft | 123 kts | 356° |
| 2026-05-03 20:40 | 58.82496 | 5.63939 | 1006 ft | 126 kts | 358° |
| 2026-05-03 20:40 | 58.83403 | 5.63912 | 816 ft | 137 kts | 357° |
| 2026-05-03 20:40 | 58.84355 | 5.63879 | 655 ft | 136 kts | 356° |
| 2026-05-03 20:40 | 58.85287 | 5.63854 | 428 ft | 135 kts | 355° |
| 2026-05-03 20:41 | 58.86215 | 5.63832 | 243 ft | 130 kts | 354° |
| 2026-05-03 20:41 | 58.87105 | 5.63803 | 61 ft | 125 kts | 355° |
| 2026-05-03 20:41 | 58.87885 | 5.63769 | 32 ft | 90 kts | 359° |
| 2026-05-03 20:41 | 58.88301 | 5.63762 | 30 ft | 40 kts | 359° |
| 2026-05-03 20:42 | 58.88564 | 5.63755 | 28 ft | 35 kts | 359° |
| 2026-05-03 20:42 | 58.88696 | 5.63714 | 27 ft | 11 kts | 310° |
| 2026-05-03 20:42 | 58.88709 | 5.63578 | 28 ft | 10 kts | 271° |
| 2026-05-03 20:42 | 58.88696 | 5.63447 | 30 ft | 10 kts | 234° |
| 2026-05-03 20:43 | 58.88631 | 5.63419 | 31 ft | 10 kts | 179° |
| 2026-05-03 20:43 | 58.88544 | 5.63422 | 30 ft | 16 kts | 179° |
| 2026-05-03 20:43 | 58.88467 | 5.63420 | 30 ft | 1 kts | 183° |
| 2026-05-03 20:43 | 58.88454 | 5.63420 | 29 ft | 3 kts | 178° |
| 2026-05-03 20:44 | 58.88409 | 5.63425 | 30 ft | 10 kts | 177° |
| 2026-05-03 20:44 | 58.88317 | 5.63428 | 30 ft | 12 kts | 183° |
| 2026-05-03 20:44 | 58.88280 | 5.63309 | 30 ft | 11 kts | 288° |
| 2026-05-03 20:44 | 58.88290 | 5.63177 | 28 ft | 9 kts | 255° |
| 2026-05-03 20:45 | 58.88281 | 5.63113 | 24 ft | 3 kts | 255° |
| 2026-05-03 20:45 | 58.88278 | 5.63094 | 24 ft | 0 kts | 254° |